sensor_id;sensor_type;location;lat;lon;timestamp;pressure;altitude;pressure_sealevel;temperature;humidity
29839;BME280;18669;53.356;-1.464;2023-02-15T00:00:31;101541.03;;;6.81;100.00
29839;BME280;18669;53.356;-1.464;2023-02-15T00:02:57;101535.88;;;6.92;100.00
29839;BME280;18669;53.356;-1.464;2023-02-15T00:05:23;101530.75;;;7.01;100.00
29839;BME280;18669;53.356;-1.464;2023-02-15T00:07:49;101529.91;;;7.07;100.00
29839;BME280;18669;53.356;-1.464;2023-02-15T00:10:15;101529.03;;;7.10;100.00
29839;BME280;18669;53.356;-1.464;2023-02-15T00:12:42;101522.13;;;7.18;100.00
29839;BME280;18669;53.356;-1.464;2023-02-15T00:15:08;101510.84;;;7.24;100.00
29839;BME280;18669;53.356;-1.464;2023-02-15T00:17:34;101515.25;;;7.31;100.00
29839;BME280;18669;53.356;-1.464;2023-02-15T00:20:01;101514.38;;;7.32;100.00
29839;BME280;18669;53.356;-1.464;2023-02-15T00:22:26;101509.13;;;7.27;100.00
29839;BME280;18669;53.356;-1.464;2023-02-15T00:24:52;101512.59;;;7.26;100.00
29839;BME280;18669;53.356;-1.464;2023-02-15T00:27:18;101500.38;;;7.24;100.00
29839;BME280;18669;53.356;-1.464;2023-02-15T00:29:46;101499.56;;;7.34;100.00
29839;BME280;18669;53.356;-1.464;2023-02-15T00:32:12;101495.19;;;7.28;100.00
29839;BME280;18669;53.356;-1.464;2023-02-15T00:34:38;101496.91;;;7.28;100.00
29839;BME280;18669;53.356;-1.464;2023-02-15T00:37:04;101485.63;;;7.37;100.00
29839;BME280;18669;53.356;-1.464;2023-02-15T00:39:30;101488.28;;;7.43;100.00
29839;BME280;18669;53.356;-1.464;2023-02-15T00:41:56;101484.81;;;7.47;100.00
29839;BME280;18669;53.356;-1.464;2023-02-15T00:44:22;101480.50;;;7.55;100.00
29839;BME280;18669;53.356;-1.464;2023-02-15T00:46:48;101483.97;;;7.54;100.00
29839;BME280;18669;53.356;-1.464;2023-02-15T00:49:14;101476.13;;;7.51;100.00
29839;BME280;18669;53.356;-1.464;2023-02-15T00:51:40;101480.47;;;7.51;100.00
29839;BME280;18669;53.356;-1.464;2023-02-15T00:54:06;101471.78;;;7.56;100.00
29839;BME280;18669;53.356;-1.464;2023-02-15T00:56:32;101469.13;;;7.49;100.00
29839;BME280;18669;53.356;-1.464;2023-02-15T00:58:58;101468.28;;;7.53;100.00
29839;BME280;18669;53.356;-1.464;2023-02-15T01:01:24;101470.03;;;7.55;100.00
29839;BME280;18669;53.356;-1.464;2023-02-15T01:03:51;101463.03;;;7.54;100.00
29839;BME280;18669;53.356;-1.464;2023-02-15T01:06:17;101456.03;;;7.53;100.00
29839;BME280;18669;53.356;-1.464;2023-02-15T01:08:44;101457.84;;;7.59;100.00
29839;BME280;18669;53.356;-1.464;2023-02-15T01:11:14;101447.38;;;7.64;100.00
29839;BME280;18669;53.356;-1.464;2023-02-15T01:13:41;101452.59;;;7.59;100.00
29839;BME280;18669;53.356;-1.464;2023-02-15T01:16:08;101452.59;;;7.59;100.00
29839;BME280;18669;53.356;-1.464;2023-02-15T01:18:34;101439.47;;;7.54;100.00
29839;BME280;18669;53.356;-1.464;2023-02-15T01:21:09;101429.88;;;7.55;100.00
29839;BME280;18669;53.356;-1.464;2023-02-15T01:23:35;101430.69;;;7.41;100.00
29839;BME280;18669;53.356;-1.464;2023-02-15T01:26:03;101445.56;;;7.49;100.00
29839;BME280;18669;53.356;-1.464;2023-02-15T01:28:30;101433.28;;;7.37;100.00
29839;BME280;18669;53.356;-1.464;2023-02-15T01:30:56;101429.75;;;7.28;100.00
29839;BME280;18669;53.356;-1.464;2023-02-15T01:33:22;101433.16;;;7.16;100.00
29839;BME280;18669;53.356;-1.464;2023-02-15T01:35:48;101424.41;;;7.11;100.00
29839;BME280;18669;53.356;-1.464;2023-02-15T01:38:14;101418.22;;;7.03;100.00
29839;BME280;18669;53.356;-1.464;2023-02-15T01:40:40;101423.41;;;6.95;100.00
29839;BME280;18669;53.356;-1.464;2023-02-15T01:43:11;101415.66;;;7.05;100.00
29839;BME280;18669;53.356;-1.464;2023-02-15T01:45:38;101412.94;;;6.92;100.00
29839;BME280;18669;53.356;-1.464;2023-02-15T01:48:19;101406.88;;;6.96;100.00
29839;BME280;18669;53.356;-1.464;2023-02-15T01:50:56;101409.38;;;6.82;100.00
29839;BME280;18669;53.356;-1.464;2023-02-15T01:53:29;101396.19;;;6.70;100.00
29839;BME280;18669;53.356;-1.464;2023-02-15T01:56:03;101397.88;;;6.62;100.00
29839;BME280;18669;53.356;-1.464;2023-02-15T01:58:32;101406.50;;;6.50;100.00
29839;BME280;18669;53.356;-1.464;2023-02-15T02:01:00;101395.91;;;6.36;100.00
29839;BME280;18669;53.356;-1.464;2023-02-15T02:06:18;101386.88;;;6.04;100.00
29839;BME280;18669;53.356;-1.464;2023-02-15T02:08:45;101384.91;;;5.85;100.00
29839;BME280;18669;53.356;-1.464;2023-02-15T02:11:13;101382.25;;;5.80;100.00
29839;BME280;18669;53.356;-1.464;2023-02-15T02:13:41;101371.63;;;5.66;100.00
29839;BME280;18669;53.356;-1.464;2023-02-15T02:19:20;101368.81;;;5.47;100.00
29839;BME280;18669;53.356;-1.464;2023-02-15T02:25:04;101351.19;;;5.28;100.00
29839;BME280;18669;53.356;-1.464;2023-02-15T02:41:09;101330.19;;;4.57;100.00
29839;BME280;18669;53.356;-1.464;2023-02-15T02:46:37;101306.63;;;4.51;100.00
29839;BME280;18669;53.356;-1.464;2023-02-15T02:49:05;101307.97;;;4.25;100.00
29839;BME280;18669;53.356;-1.464;2023-02-15T02:51:31;101300.09;;;4.19;100.00
29839;BME280;18669;53.356;-1.464;2023-02-15T02:54:00;101292.56;;;4.38;100.00
29839;BME280;18669;53.356;-1.464;2023-02-15T02:56:47;101293.56;;;4.46;100.00
29839;BME280;18669;53.356;-1.464;2023-02-15T02:59:20;101296.00;;;4.37;100.00
29839;BME280;18669;53.356;-1.464;2023-02-15T03:01:54;101290.72;;;4.32;100.00
29839;BME280;18669;53.356;-1.464;2023-02-15T03:04:34;101292.56;;;4.38;100.00
29839;BME280;18669;53.356;-1.464;2023-02-15T03:07:04;101283.78;;;4.31;100.00
29839;BME280;18669;53.356;-1.464;2023-02-15T03:09:35;101275.91;;;4.28;100.00
29839;BME280;18669;53.356;-1.464;2023-02-15T03:12:11;101283.81;;;4.34;100.00
29839;BME280;18669;53.356;-1.464;2023-02-15T03:14:40;101279.25;;;4.21;100.00
29839;BME280;18669;53.356;-1.464;2023-02-15T03:17:08;101268.78;;;4.16;100.00
29839;BME280;18669;53.356;-1.464;2023-02-15T03:19:37;101268.84;;;4.19;100.00
29839;BME280;18669;53.356;-1.464;2023-02-15T03:22:15;101255.66;;;4.11;100.00
29839;BME280;18669;53.356;-1.464;2023-02-15T03:27:25;101252.16;;;4.09;100.00
29839;BME280;18669;53.356;-1.464;2023-02-15T03:29:55;101246.03;;;4.07;100.00
29839;BME280;18669;53.356;-1.464;2023-02-15T03:32:25;101247.00;;;4.11;100.00
29839;BME280;18669;53.356;-1.464;2023-02-15T03:34:54;101242.47;;;4.00;100.00
29839;BME280;18669;53.356;-1.464;2023-02-15T03:37:42;101234.03;;;4.15;100.00
29839;BME280;18669;53.356;-1.464;2023-02-15T03:43:49;101238.53;;;4.27;100.00
29839;BME280;18669;53.356;-1.464;2023-02-15T03:46:28;101232.38;;;4.19;100.00
29839;BME280;18669;53.356;-1.464;2023-02-15T03:49:21;101231.47;;;4.17;100.00
29839;BME280;18669;53.356;-1.464;2023-02-15T03:51:46;101231.25;;;4.03;100.00
29839;BME280;18669;53.356;-1.464;2023-02-15T03:54:21;101230.41;;;4.06;100.00
29839;BME280;18669;53.356;-1.464;2023-02-15T03:57:12;101224.34;;;4.07;100.00
29839;BME280;18669;53.356;-1.464;2023-02-15T03:59:58;101209.53;;;4.02;100.00
29839;BME280;18669;53.356;-1.464;2023-02-15T04:05:29;101200.75;;;3.96;100.00
29839;BME280;18669;53.356;-1.464;2023-02-15T04:07:55;101197.31;;;3.98;100.00
29839;BME280;18669;53.356;-1.464;2023-02-15T04:10:21;101199.88;;;3.95;100.00
29839;BME280;18669;53.356;-1.464;2023-02-15T04:13:05;101197.16;;;3.89;100.00
29839;BME280;18669;53.356;-1.464;2023-02-15T04:15:31;101196.28;;;3.88;100.00
29839;BME280;18669;53.356;-1.464;2023-02-15T04:18:16;101183.13;;;3.79;100.00
29839;BME280;18669;53.356;-1.464;2023-02-15T04:20:46;101180.69;;;3.90;100.00
29839;BME280;18669;53.356;-1.464;2023-02-15T04:23:31;101170.25;;;3.87;100.00
29839;BME280;18669;53.356;-1.464;2023-02-15T04:26:16;101169.47;;;3.94;100.00
29839;BME280;18669;53.356;-1.464;2023-02-15T04:28:42;101164.22;;;3.90;100.00
29839;BME280;18669;53.356;-1.464;2023-02-15T04:31:08;101168.53;;;3.89;100.00
29839;BME280;18669;53.356;-1.464;2023-02-15T04:33:34;101163.38;;;3.92;100.00
29839;BME280;18669;53.356;-1.464;2023-02-15T04:36:03;101153.03;;;3.97;100.00
29839;BME280;18669;53.356;-1.464;2023-02-15T04:38:29;101153.75;;;3.86;100.00
29839;BME280;18669;53.356;-1.464;2023-02-15T04:40:55;101153.00;;;3.95;100.00
29839;BME280;18669;53.356;-1.464;2023-02-15T04:43:22;101157.34;;;3.96;100.00
29839;BME280;18669;53.356;-1.464;2023-02-15T04:45:49;101153.94;;;3.99;100.00
29839;BME280;18669;53.356;-1.464;2023-02-15T04:48:16;101153.09;;;4.00;100.00
29839;BME280;18669;53.356;-1.464;2023-02-15T04:50:43;101157.19;;;3.84;100.00
29839;BME280;18669;53.356;-1.464;2023-02-15T04:53:10;101158.06;;;3.84;100.00
29839;BME280;18669;53.356;-1.464;2023-02-15T04:55:36;101146.63;;;3.76;100.00
29839;BME280;18669;53.356;-1.464;2023-02-15T04:58:02;101148.59;;;3.90;100.00
29839;BME280;18669;53.356;-1.464;2023-02-15T05:00:28;101142.38;;;3.81;100.00
29839;BME280;18669;53.356;-1.464;2023-02-15T05:02:54;101142.44;;;3.84;100.00
29839;BME280;18669;53.356;-1.464;2023-02-15T05:05:20;101136.41;;;3.87;100.00
29839;BME280;18669;53.356;-1.464;2023-02-15T05:07:46;101141.63;;;3.90;100.00
29839;BME280;18669;53.356;-1.464;2023-02-15T05:10:12;101132.13;;;3.91;100.00
29839;BME280;18669;53.356;-1.464;2023-02-15T05:12:38;101132.06;;;3.86;100.00
29839;BME280;18669;53.356;-1.464;2023-02-15T05:15:04;101133.78;;;3.84;100.00
29839;BME280;18669;53.356;-1.464;2023-02-15T05:17:30;101125.06;;;3.83;100.00
29839;BME280;18669;53.356;-1.464;2023-02-15T05:19:56;101123.31;;;3.82;100.00
29839;BME280;18669;53.356;-1.464;2023-02-15T05:22:22;101127.81;;;3.93;100.00
29839;BME280;18669;53.356;-1.464;2023-02-15T05:24:48;101113.06;;;3.92;100.00
29839;BME280;18669;53.356;-1.464;2023-02-15T05:27:32;101114.81;;;3.94;100.00
29839;BME280;18669;53.356;-1.464;2023-02-15T05:30:17;101114.84;;;3.97;100.00
29839;BME280;18669;53.356;-1.464;2023-02-15T05:32:43;101119.34;;;4.06;100.00
29839;BME280;18669;53.356;-1.464;2023-02-15T05:35:13;101115.28;;;4.28;100.00
29839;BME280;18669;53.356;-1.464;2023-02-15T05:37:39;101115.31;;;4.30;100.00
29839;BME280;18669;53.356;-1.464;2023-02-15T05:40:07;101108.53;;;4.43;100.00
29839;BME280;18669;53.356;-1.464;2023-02-15T05:42:33;101096.44;;;4.50;100.00
29839;BME280;18669;53.356;-1.464;2023-02-15T05:44:59;101096.50;;;4.56;100.00
29839;BME280;18669;53.356;-1.464;2023-02-15T05:47:25;101095.81;;;4.69;100.00
29839;BME280;18669;53.356;-1.464;2023-02-15T05:49:51;101104.59;;;4.79;100.00
29839;BME280;18669;53.356;-1.464;2023-02-15T05:52:17;101100.34;;;4.87;100.00
29839;BME280;18669;53.356;-1.464;2023-02-15T05:54:43;101103.88;;;4.94;100.00
29839;BME280;18669;53.356;-1.464;2023-02-15T05:57:09;101095.28;;;5.01;100.00
29839;BME280;18669;53.356;-1.464;2023-02-15T05:59:35;101090.09;;;5.06;100.00
29839;BME280;18669;53.356;-1.464;2023-02-15T06:02:01;101079.69;;;5.07;100.00
29839;BME280;18669;53.356;-1.464;2023-02-15T06:04:27;101082.25;;;5.06;100.00
29839;BME280;18669;53.356;-1.464;2023-02-15T06:06:53;101073.63;;;5.08;100.00
29839;BME280;18669;53.356;-1.464;2023-02-15T06:09:19;101066.66;;;5.09;100.00
29839;BME280;18669;53.356;-1.464;2023-02-15T06:11:45;101064.97;;;5.14;100.00
29839;BME280;18669;53.356;-1.464;2023-02-15T06:14:11;101075.47;;;5.23;100.00
29839;BME280;18669;53.356;-1.464;2023-02-15T06:16:37;101069.47;;;5.32;100.00
29839;BME280;18669;53.356;-1.464;2023-02-15T06:19:03;101058.19;;;5.36;100.00
29839;BME280;18669;53.356;-1.464;2023-02-15T06:21:30;101064.34;;;5.48;100.00
29839;BME280;18669;53.356;-1.464;2023-02-15T06:23:56;101073.09;;;5.56;100.00
29839;BME280;18669;53.356;-1.464;2023-02-15T06:26:22;101066.28;;;5.75;100.00
29839;BME280;18669;53.356;-1.464;2023-02-15T06:28:48;101070.56;;;5.65;100.00
29839;BME280;18669;53.356;-1.464;2023-02-15T06:31:14;101069.72;;;5.71;100.00
29839;BME280;18669;53.356;-1.464;2023-02-15T06:33:40;101075.91;;;5.82;100.00
29839;BME280;18669;53.356;-1.464;2023-02-15T06:36:06;101074.22;;;5.91;100.00
29839;BME280;18669;53.356;-1.464;2023-02-15T06:38:32;101077.72;;;5.96;100.00
29839;BME280;18669;53.356;-1.464;2023-02-15T06:40:58;101076.09;;;6.14;100.00
29839;BME280;18669;53.356;-1.464;2023-02-15T06:43:24;101078.59;;;5.96;100.00
29839;BME280;18669;53.356;-1.464;2023-02-15T06:45:50;101086.44;;;5.96;100.00
29839;BME280;18669;53.356;-1.464;2023-02-15T06:48:16;101081.16;;;5.90;100.00
29839;BME280;18669;53.356;-1.464;2023-02-15T06:50:42;101073.31;;;5.86;100.00
29839;BME280;18669;53.356;-1.464;2023-02-15T06:53:08;101072.44;;;5.82;100.00
29839;BME280;18669;53.356;-1.464;2023-02-15T06:55:34;101065.41;;;5.73;100.00
29839;BME280;18669;53.356;-1.464;2023-02-15T06:58:00;101068.00;;;5.72;100.00
29839;BME280;18669;53.356;-1.464;2023-02-15T07:00:26;101066.22;;;5.69;100.00
29839;BME280;18669;53.356;-1.464;2023-02-15T07:02:56;101065.34;;;5.65;100.00
29839;BME280;18669;53.356;-1.464;2023-02-15T07:05:24;101055.72;;;5.53;100.00
29839;BME280;18669;53.356;-1.464;2023-02-15T07:07:50;101057.34;;;5.42;100.00
29839;BME280;18669;53.356;-1.464;2023-02-15T07:10:16;101066.09;;;5.47;100.00
29839;BME280;18669;53.356;-1.464;2023-02-15T07:12:42;101057.41;;;5.53;100.00
29839;BME280;18669;53.356;-1.464;2023-02-15T07:15:10;101063.50;;;5.52;100.00
29839;BME280;18669;53.356;-1.464;2023-02-15T07:17:36;101062.63;;;5.47;100.00
29839;BME280;18669;53.356;-1.464;2023-02-15T07:20:15;101066.19;;;5.60;100.00
29839;BME280;18669;53.356;-1.464;2023-02-15T07:22:42;101063.50;;;5.46;100.00
29839;BME280;18669;53.356;-1.464;2023-02-15T07:25:09;101060.84;;;5.44;100.00
29839;BME280;18669;53.356;-1.464;2023-02-15T07:27:37;101064.34;;;5.45;100.00
29839;BME280;18669;53.356;-1.464;2023-02-15T07:30:06;101059.16;;;5.51;100.00
29839;BME280;18669;53.356;-1.464;2023-02-15T07:32:32;101055.63;;;5.44;100.00
29839;BME280;18669;53.356;-1.464;2023-02-15T07:34:59;101062.63;;;5.50;100.00
29839;BME280;18669;53.356;-1.464;2023-02-15T07:37:26;101053.94;;;5.51;100.00
29839;BME280;18669;53.356;-1.464;2023-02-15T07:39:52;101049.56;;;5.48;100.00
29839;BME280;18669;53.356;-1.464;2023-02-15T07:42:18;101058.28;;;5.52;100.00
29839;BME280;18669;53.356;-1.464;2023-02-15T07:44:45;101058.34;;;5.61;100.00
29839;BME280;18669;53.356;-1.464;2023-02-15T07:47:11;101045.28;;;5.58;100.00
29839;BME280;18669;53.356;-1.464;2023-02-15T07:49:37;101045.28;;;5.57;100.00
29839;BME280;18669;53.356;-1.464;2023-02-15T07:52:04;101041.81;;;5.58;100.00
29839;BME280;18669;53.356;-1.464;2023-02-15T07:54:30;101037.47;;;5.61;100.00
29839;BME280;18669;53.356;-1.464;2023-02-15T07:56:56;101037.44;;;5.55;100.00
29839;BME280;18669;53.356;-1.464;2023-02-15T07:59:22;101031.38;;;5.58;100.00
29839;BME280;18669;53.356;-1.464;2023-02-15T08:01:48;101035.72;;;5.59;100.00
29839;BME280;18669;53.356;-1.464;2023-02-15T08:04:14;101028.75;;;5.58;100.00
29839;BME280;18669;53.356;-1.464;2023-02-15T08:06:40;101032.34;;;5.75;100.00
29839;BME280;18669;53.356;-1.464;2023-02-15T08:09:07;101018.34;;;5.67;100.00
29839;BME280;18669;53.356;-1.464;2023-02-15T08:11:38;101024.47;;;5.69;100.00
29839;BME280;18669;53.356;-1.464;2023-02-15T08:14:13;101012.31;;;5.73;100.00
29839;BME280;18669;53.356;-1.464;2023-02-15T08:16:50;101007.97;;;5.73;100.00
29839;BME280;18669;53.356;-1.464;2023-02-15T08:19:24;101008.81;;;5.71;100.00
29839;BME280;18669;53.356;-1.464;2023-02-15T08:21:56;101001.88;;;5.73;100.00
29839;BME280;18669;53.356;-1.464;2023-02-15T08:24:24;101011.47;;;5.74;100.00
29839;BME280;18669;53.356;-1.464;2023-02-15T08:26:51;100994.09;;;5.82;100.00
29839;BME280;18669;53.356;-1.464;2023-02-15T08:29:20;100983.75;;;6.02;100.00
29839;BME280;18669;53.356;-1.464;2023-02-15T08:31:48;100989.97;;;6.32;100.00
29839;BME280;18669;53.356;-1.464;2023-02-15T08:34:17;100989.16;;;6.64;100.00
29839;BME280;18669;53.356;-1.464;2023-02-15T08:36:44;100987.41;;;6.82;100.00
29839;BME280;18669;53.356;-1.464;2023-02-15T08:39:12;100991.78;;;6.97;100.00
29839;BME280;18669;53.356;-1.464;2023-02-15T08:41:42;100990.94;;;7.03;100.00
29839;BME280;18669;53.356;-1.464;2023-02-15T08:44:08;100981.34;;;7.01;100.00
29839;BME280;18669;53.356;-1.464;2023-02-15T08:46:38;100971.75;;;7.14;100.00
29839;BME280;18669;53.356;-1.464;2023-02-15T08:49:05;100970.84;;;7.23;100.00
29839;BME280;18669;53.356;-1.464;2023-02-15T08:51:33;100970.81;;;7.25;100.00
29839;BME280;18669;53.356;-1.464;2023-02-15T08:54:02;100976.94;;;7.27;100.00
29839;BME280;18669;53.356;-1.464;2023-02-15T08:56:32;100977.81;;;7.30;100.00
29839;BME280;18669;53.356;-1.464;2023-02-15T08:58:58;100974.31;;;7.39;100.00
29839;BME280;18669;53.356;-1.464;2023-02-15T09:01:27;100962.91;;;7.60;100.00
29839;BME280;18669;53.356;-1.464;2023-02-15T09:04:06;100965.41;;;7.91;100.00
29839;BME280;18669;53.356;-1.464;2023-02-15T09:06:37;100962.69;;;8.16;100.00
29839;BME280;18669;53.356;-1.464;2023-02-15T09:09:04;100977.38;;;8.50;100.00
29839;BME280;18669;53.356;-1.464;2023-02-15T09:11:34;100958.06;;;8.63;100.00
29839;BME280;18669;53.356;-1.464;2023-02-15T09:14:03;100956.09;;;8.93;100.00
29839;BME280;18669;53.356;-1.464;2023-02-15T09:16:32;100968.13;;;9.18;100.00
29839;BME280;18669;53.356;-1.464;2023-02-15T09:18:58;100964.84;;;9.78;100.00
29839;BME280;18669;53.356;-1.464;2023-02-15T09:21:25;100958.75;;;10.43;100.00
29839;BME280;18669;53.356;-1.464;2023-02-15T09:23:56;100962.16;;;11.05;98.92
29839;BME280;18669;53.356;-1.464;2023-02-15T09:26:24;100953.94;;;11.71;92.31
29839;BME280;18669;53.356;-1.464;2023-02-15T09:28:55;100968.91;;;12.13;84.09
29839;BME280;18669;53.356;-1.464;2023-02-15T09:31:23;100972.16;;;12.26;81.65
29839;BME280;18669;53.356;-1.464;2023-02-15T09:33:50;100961.44;;;12.71;77.00
29839;BME280;18669;53.356;-1.464;2023-02-15T09:36:25;100940.00;;;13.20;72.53
29839;BME280;18669;53.356;-1.464;2023-02-15T09:44:27;100951.72;;;13.08;72.32
29839;BME280;18669;53.356;-1.464;2023-02-15T09:58:03;100932.09;;;12.08;79.42
29839;BME280;18669;53.356;-1.464;2023-02-15T10:09:23;100922.91;;;12.64;72.23
29839;BME280;18669;53.356;-1.464;2023-02-15T10:12:20;100918.03;;;12.47;71.90
29839;BME280;18669;53.356;-1.464;2023-02-15T10:15:23;100916.66;;;12.30;74.22
29839;BME280;18669;53.356;-1.464;2023-02-15T10:21:07;100922.50;;;11.61;78.09
29839;BME280;18669;53.356;-1.464;2023-02-15T10:26:43;100927.63;;;11.22;83.74
29839;BME280;18669;53.356;-1.464;2023-02-15T10:34:46;100926.41;;;11.42;84.09
29839;BME280;18669;53.356;-1.464;2023-02-15T10:42:20;100907.47;;;11.67;83.11
29839;BME280;18669;53.356;-1.464;2023-02-15T10:45:26;100918.63;;;12.20;79.74
29839;BME280;18669;53.356;-1.464;2023-02-15T10:48:07;100923.28;;;12.09;78.63
29839;BME280;18669;53.356;-1.464;2023-02-15T10:50:46;100904.19;;;11.99;78.14
29839;BME280;18669;53.356;-1.464;2023-02-15T10:58:49;100896.31;;;11.94;77.71
29839;BME280;18669;53.356;-1.464;2023-02-15T11:06:37;100893.75;;;11.91;79.86
29839;BME280;18669;53.356;-1.464;2023-02-15T11:09:11;100901.28;;;11.68;83.05
29839;BME280;18669;53.356;-1.464;2023-02-15T11:11:40;100904.59;;;11.77;82.71
29839;BME280;18669;53.356;-1.464;2023-02-15T11:14:15;100903.50;;;12.29;78.66
29839;BME280;18669;53.356;-1.464;2023-02-15T11:16:45;100897.06;;;12.41;77.03
29839;BME280;18669;53.356;-1.464;2023-02-15T11:21:49;100897.47;;;12.61;75.55
29839;BME280;18669;53.356;-1.464;2023-02-15T11:24:18;100898.50;;;12.54;74.80
29839;BME280;18669;53.356;-1.464;2023-02-15T11:26:54;100891.34;;;12.59;75.21
29839;BME280;18669;53.356;-1.464;2023-02-15T11:29:34;100897.59;;;13.24;72.00
29839;BME280;18669;53.356;-1.464;2023-02-15T11:32:21;100892.88;;;14.53;66.42
29839;BME280;18669;53.356;-1.464;2023-02-15T11:37:40;100901.31;;;15.67;57.52
29839;BME280;18669;53.356;-1.464;2023-02-15T11:42:45;100884.66;;;16.54;55.04
29839;BME280;18669;53.356;-1.464;2023-02-15T11:45:30;100883.38;;;16.64;54.25
29839;BME280;18669;53.356;-1.464;2023-02-15T11:47:57;100887.66;;;16.24;55.08
29839;BME280;18669;53.356;-1.464;2023-02-15T11:50:26;100885.72;;;16.28;55.18
29839;BME280;18669;53.356;-1.464;2023-02-15T11:52:57;100884.16;;;16.23;54.27
29839;BME280;18669;53.356;-1.464;2023-02-15T11:55:24;100886.78;;;15.30;56.26
29839;BME280;18669;53.356;-1.464;2023-02-15T11:58:30;100890.97;;;14.58;59.21
29839;BME280;18669;53.356;-1.464;2023-02-15T12:01:07;100892.69;;;14.32;61.63
29839;BME280;18669;53.356;-1.464;2023-02-15T12:03:48;100879.09;;;15.22;60.02
29839;BME280;18669;53.356;-1.464;2023-02-15T12:08:48;100867.94;;;15.61;58.03
29839;BME280;18669;53.356;-1.464;2023-02-15T12:11:20;100859.06;;;15.86;57.67
29839;BME280;18669;53.356;-1.464;2023-02-15T12:13:59;100859.94;;;17.15;55.35
29839;BME280;18669;53.356;-1.464;2023-02-15T12:16:26;100848.34;;;17.75;52.03
29839;BME280;18669;53.356;-1.464;2023-02-15T12:18:56;100858.25;;;18.47;50.44
29839;BME280;18669;53.356;-1.464;2023-02-15T12:21:32;100851.34;;;18.43;49.02
29839;BME280;18669;53.356;-1.464;2023-02-15T12:24:20;100852.53;;;18.90;48.40
29839;BME280;18669;53.356;-1.464;2023-02-15T12:27:16;100850.56;;;18.76;48.46
29839;BME280;18669;53.356;-1.464;2023-02-15T12:29:59;100834.72;;;19.08;47.63
29839;BME280;18669;53.356;-1.464;2023-02-15T12:32:49;100841.00;;;18.89;48.47
29839;BME280;18669;53.356;-1.464;2023-02-15T12:38:00;100829.84;;;19.82;47.74
29839;BME280;18669;53.356;-1.464;2023-02-15T12:40:31;100835.25;;;20.59;45.25
29839;BME280;18669;53.356;-1.464;2023-02-15T12:42:57;100844.25;;;19.30;46.14
29839;BME280;18669;53.356;-1.464;2023-02-15T12:45:32;100849.66;;;18.05;49.74
29839;BME280;18669;53.356;-1.464;2023-02-15T12:48:19;100851.34;;;16.88;52.80
29839;BME280;18669;53.356;-1.464;2023-02-15T12:50:49;100852.78;;;15.65;57.79
29839;BME280;18669;53.356;-1.464;2023-02-15T12:53:22;100865.16;;;14.91;62.18
29839;BME280;18669;53.356;-1.464;2023-02-15T12:55:54;100860.72;;;14.38;67.26
29839;BME280;18669;53.356;-1.464;2023-02-15T12:58:32;100847.13;;;14.22;72.16
29839;BME280;18669;53.356;-1.464;2023-02-15T13:01:25;100861.25;;;13.94;76.17
29839;BME280;18669;53.356;-1.464;2023-02-15T13:04:01;100862.47;;;13.82;79.48
29839;BME280;18669;53.356;-1.464;2023-02-15T13:06:33;100848.94;;;13.63;84.95
29839;BME280;18669;53.356;-1.464;2023-02-15T13:09:14;100870.00;;;13.35;92.75
29839;BME280;18669;53.356;-1.464;2023-02-15T13:11:43;100883.38;;;13.28;98.61
29839;BME280;18669;53.356;-1.464;2023-02-15T13:14:23;100865.28;;;13.15;100.00
29839;BME280;18669;53.356;-1.464;2023-02-15T13:16:53;100869.50;;;12.89;100.00
29839;BME280;18669;53.356;-1.464;2023-02-15T13:19:42;100870.56;;;12.81;100.00
29839;BME280;18669;53.356;-1.464;2023-02-15T13:22:22;100863.47;;;12.82;100.00
29839;BME280;18669;53.356;-1.464;2023-02-15T13:24:58;100864.81;;;12.98;100.00
29839;BME280;18669;53.356;-1.464;2023-02-15T13:27:31;100852.41;;;13.34;100.00
29839;BME280;18669;53.356;-1.464;2023-02-15T13:30:03;100859.50;;;13.63;100.00
29839;BME280;18669;53.356;-1.464;2023-02-15T13:32:37;100865.19;;;13.79;100.00
29839;BME280;18669;53.356;-1.464;2023-02-15T13:35:14;100867.34;;;13.66;100.00
29839;BME280;18669;53.356;-1.464;2023-02-15T13:38:08;100868.13;;;13.70;100.00
29839;BME280;18669;53.356;-1.464;2023-02-15T13:40:54;100878.88;;;13.32;100.00
29839;BME280;18669;53.356;-1.464;2023-02-15T13:43:31;100876.59;;;12.87;100.00
29839;BME280;18669;53.356;-1.464;2023-02-15T13:46:17;100867.63;;;12.92;100.00
29839;BME280;18669;53.356;-1.464;2023-02-15T13:52:31;100861.72;;;13.47;100.00
29839;BME280;18669;53.356;-1.464;2023-02-15T14:06:00;100846.88;;;13.43;100.00
29839;BME280;18669;53.356;-1.464;2023-02-15T14:19:40;100836.75;;;12.94;100.00
29839;BME280;18669;53.356;-1.464;2023-02-15T14:24:38;100836.63;;;12.66;100.00
29839;BME280;18669;53.356;-1.464;2023-02-15T14:27:37;100832.69;;;12.48;100.00
29839;BME280;18669;53.356;-1.464;2023-02-15T14:30:00;100819.94;;;12.65;100.00
29839;BME280;18669;53.356;-1.464;2023-02-15T14:33:01;100833.63;;;12.45;100.00
29839;BME280;18669;53.356;-1.464;2023-02-15T14:35:22;100818.50;;;12.52;100.00
29839;BME280;18669;53.356;-1.464;2023-02-15T14:41:17;100827.25;;;12.54;100.00
29839;BME280;18669;53.356;-1.464;2023-02-15T14:49:09;100818.72;;;12.06;100.00
29839;BME280;18669;53.356;-1.464;2023-02-15T14:54:09;100823.66;;;12.22;100.00
29839;BME280;18669;53.356;-1.464;2023-02-15T14:56:36;100825.94;;;12.36;100.00
29839;BME280;18669;53.356;-1.464;2023-02-15T14:59:20;100828.03;;;12.58;100.00
29839;BME280;18669;53.356;-1.464;2023-02-15T15:01:57;100840.78;;;12.40;100.00
29839;BME280;18669;53.356;-1.464;2023-02-15T15:04:33;100846.47;;;12.23;100.00
29839;BME280;18669;53.356;-1.464;2023-02-15T15:07:14;100849.44;;;12.09;100.00
29839;BME280;18669;53.356;-1.464;2023-02-15T15:09:43;100841.75;;;12.00;100.00
29839;BME280;18669;53.356;-1.464;2023-02-15T15:14:50;100839.03;;;12.03;100.00
29839;BME280;18669;53.356;-1.464;2023-02-15T15:19:59;100843.28;;;12.10;100.00
29839;BME280;18669;53.356;-1.464;2023-02-15T15:22:30;100851.78;;;12.21;100.00